sensor_id;sensor_type;location;lat;lon;timestamp;P1;durP1;ratioP1;P2;durP2;ratioP2
1328;SDS011;658;48.820;9.354;2023-05-07T00:02:12;1.10;;;1.10;;
1328;SDS011;658;48.820;9.354;2023-05-07T00:06:15;1.00;;;1.00;;
1328;SDS011;658;48.820;9.354;2023-05-07T00:10:15;1.10;;;1.10;;
1328;SDS011;658;48.820;9.354;2023-05-07T00:14:16;1.00;;;1.00;;
1328;SDS011;658;48.820;9.354;2023-05-07T00:18:17;1.27;;;1.27;;
1328;SDS011;658;48.820;9.354;2023-05-07T00:22:21;1.00;;;1.00;;
1328;SDS011;658;48.820;9.354;2023-05-07T00:26:21;1.33;;;1.23;;
1328;SDS011;658;48.820;9.354;2023-05-07T00:30:22;1.23;;;1.23;;
1328;SDS011;658;48.820;9.354;2023-05-07T00:34:22;1.20;;;1.10;;
1328;SDS011;658;48.820;9.354;2023-05-07T00:38:23;0.90;;;0.90;;
1328;SDS011;658;48.820;9.354;2023-05-07T00:42:24;2.27;;;1.90;;
1328;SDS011;658;48.820;9.354;2023-05-07T00:46:24;1.30;;;1.20;;
1328;SDS011;658;48.820;9.354;2023-05-07T00:50:27;0.80;;;0.80;;
1328;SDS011;658;48.820;9.354;2023-05-07T00:54:29;1.23;;;1.17;;
1328;SDS011;658;48.820;9.354;2023-05-07T00:58:30;1.00;;;1.00;;
1328;SDS011;658;48.820;9.354;2023-05-07T01:02:31;1.13;;;1.13;;
1328;SDS011;658;48.820;9.354;2023-05-07T01:06:32;1.47;;;1.37;;
1328;SDS011;658;48.820;9.354;2023-05-07T01:10:33;1.23;;;1.13;;
1328;SDS011;658;48.820;9.354;2023-05-07T01:14:34;1.13;;;1.03;;
1328;SDS011;658;48.820;9.354;2023-05-07T01:18:35;1.20;;;1.20;;
1328;SDS011;658;48.820;9.354;2023-05-07T01:22:38;1.57;;;1.47;;
1328;SDS011;658;48.820;9.354;2023-05-07T01:26:40;1.60;;;1.50;;
1328;SDS011;658;48.820;9.354;2023-05-07T01:30:43;1.40;;;1.30;;
1328;SDS011;658;48.820;9.354;2023-05-07T01:34:47;0.90;;;0.90;;
1328;SDS011;658;48.820;9.354;2023-05-07T01:38:50;1.20;;;1.20;;
1328;SDS011;658;48.820;9.354;2023-05-07T01:42:51;1.50;;;1.40;;
1328;SDS011;658;48.820;9.354;2023-05-07T01:46:55;1.37;;;1.23;;
1328;SDS011;658;48.820;9.354;2023-05-07T01:50:57;1.03;;;1.03;;
1328;SDS011;658;48.820;9.354;2023-05-07T01:54:59;1.00;;;1.00;;
1328;SDS011;658;48.820;9.354;2023-05-07T01:58:59;1.33;;;1.23;;
1328;SDS011;658;48.820;9.354;2023-05-07T02:03:00;0.97;;;0.97;;
1328;SDS011;658;48.820;9.354;2023-05-07T02:07:01;1.20;;;1.20;;
1328;SDS011;658;48.820;9.354;2023-05-07T02:11:01;1.10;;;1.10;;
1328;SDS011;658;48.820;9.354;2023-05-07T02:15:04;1.60;;;1.50;;
1328;SDS011;658;48.820;9.354;2023-05-07T02:19:05;1.40;;;1.30;;
1328;SDS011;658;48.820;9.354;2023-05-07T02:23:06;1.30;;;1.30;;
1328;SDS011;658;48.820;9.354;2023-05-07T02:27:07;0.90;;;0.90;;
1328;SDS011;658;48.820;9.354;2023-05-07T02:31:07;1.10;;;1.10;;
1328;SDS011;658;48.820;9.354;2023-05-07T02:35:08;1.00;;;1.00;;
1328;SDS011;658;48.820;9.354;2023-05-07T02:39:09;1.23;;;1.20;;
1328;SDS011;658;48.820;9.354;2023-05-07T02:43:09;1.10;;;1.10;;
1328;SDS011;658;48.820;9.354;2023-05-07T02:47:10;1.13;;;1.13;;
1328;SDS011;658;48.820;9.354;2023-05-07T02:51:12;1.20;;;1.20;;
1328;SDS011;658;48.820;9.354;2023-05-07T02:55:13;1.07;;;1.03;;
1328;SDS011;658;48.820;9.354;2023-05-07T02:59:14;1.40;;;1.30;;
1328;SDS011;658;48.820;9.354;2023-05-07T03:03:14;1.50;;;1.40;;
1328;SDS011;658;48.820;9.354;2023-05-07T03:07:15;1.00;;;1.00;;
1328;SDS011;658;48.820;9.354;2023-05-07T03:11:16;1.07;;;1.07;;
1328;SDS011;658;48.820;9.354;2023-05-07T03:15:16;0.93;;;0.93;;
1328;SDS011;658;48.820;9.354;2023-05-07T03:19:17;1.20;;;1.20;;
1328;SDS011;658;48.820;9.354;2023-05-07T03:23:17;1.20;;;1.00;;
1328;SDS011;658;48.820;9.354;2023-05-07T03:27:18;1.23;;;1.13;;
1328;SDS011;658;48.820;9.354;2023-05-07T03:31:19;1.00;;;1.00;;
1328;SDS011;658;48.820;9.354;2023-05-07T03:35:19;0.93;;;0.93;;
1328;SDS011;658;48.820;9.354;2023-05-07T03:39:20;1.30;;;1.07;;
1328;SDS011;658;48.820;9.354;2023-05-07T03:43:20;1.00;;;1.00;;
1328;SDS011;658;48.820;9.354;2023-05-07T03:47:21;1.07;;;1.03;;
1328;SDS011;658;48.820;9.354;2023-05-07T03:51:21;0.93;;;0.93;;
1328;SDS011;658;48.820;9.354;2023-05-07T03:55:22;1.23;;;1.23;;
1328;SDS011;658;48.820;9.354;2023-05-07T03:59:23;1.20;;;1.10;;
1328;SDS011;658;48.820;9.354;2023-05-07T04:03:25;1.50;;;1.40;;
1328;SDS011;658;48.820;9.354;2023-05-07T04:07:28;1.03;;;1.03;;
1328;SDS011;658;48.820;9.354;2023-05-07T04:11:31;1.10;;;1.00;;
1328;SDS011;658;48.820;9.354;2023-05-07T04:15:32;1.20;;;1.10;;
1328;SDS011;658;48.820;9.354;2023-05-07T04:19:34;1.37;;;1.30;;
1328;SDS011;658;48.820;9.354;2023-05-07T04:23:35;1.17;;;1.07;;
1328;SDS011;658;48.820;9.354;2023-05-07T04:27:36;1.50;;;1.40;;
1328;SDS011;658;48.820;9.354;2023-05-07T04:31:38;1.07;;;1.07;;
1328;SDS011;658;48.820;9.354;2023-05-07T04:35:39;1.20;;;1.20;;
1328;SDS011;658;48.820;9.354;2023-05-07T04:39:40;1.00;;;1.00;;
1328;SDS011;658;48.820;9.354;2023-05-07T04:43:40;1.30;;;1.20;;
1328;SDS011;658;48.820;9.354;2023-05-07T04:47:43;1.20;;;1.20;;
1328;SDS011;658;48.820;9.354;2023-05-07T04:51:44;1.13;;;1.13;;
1328;SDS011;658;48.820;9.354;2023-05-07T04:55:45;0.87;;;0.87;;
1328;SDS011;658;48.820;9.354;2023-05-07T04:59:45;1.03;;;1.00;;
1328;SDS011;658;48.820;9.354;2023-05-07T05:03:46;1.17;;;1.10;;
1328;SDS011;658;48.820;9.354;2023-05-07T05:07:47;1.33;;;1.23;;
1328;SDS011;658;48.820;9.354;2023-05-07T05:11:47;1.30;;;1.30;;
1328;SDS011;658;48.820;9.354;2023-05-07T05:15:48;1.00;;;1.00;;
1328;SDS011;658;48.820;9.354;2023-05-07T05:19:49;1.00;;;1.00;;
1328;SDS011;658;48.820;9.354;2023-05-07T05:23:51;0.90;;;0.90;;
1328;SDS011;658;48.820;9.354;2023-05-07T05:27:51;1.10;;;1.10;;
1328;SDS011;658;48.820;9.354;2023-05-07T05:31:52;1.10;;;1.10;;
1328;SDS011;658;48.820;9.354;2023-05-07T05:35:56;1.17;;;1.17;;
1328;SDS011;658;48.820;9.354;2023-05-07T05:39:56;0.90;;;0.90;;
1328;SDS011;658;48.820;9.354;2023-05-07T05:43:57;0.80;;;0.80;;
1328;SDS011;658;48.820;9.354;2023-05-07T05:47:58;0.80;;;0.80;;
1328;SDS011;658;48.820;9.354;2023-05-07T05:52:01;1.00;;;1.00;;
1328;SDS011;658;48.820;9.354;2023-05-07T05:56:04;0.97;;;0.97;;
1328;SDS011;658;48.820;9.354;2023-05-07T06:00:05;1.13;;;1.13;;
1328;SDS011;658;48.820;9.354;2023-05-07T06:04:06;0.90;;;0.90;;
1328;SDS011;658;48.820;9.354;2023-05-07T06:08:07;1.00;;;0.97;;
1328;SDS011;658;48.820;9.354;2023-05-07T06:12:08;1.20;;;1.10;;
1328;SDS011;658;48.820;9.354;2023-05-07T06:16:08;2.17;;;0.87;;
1328;SDS011;658;48.820;9.354;2023-05-07T06:20:09;1.10;;;1.10;;
1328;SDS011;658;48.820;9.354;2023-05-07T06:24:10;0.90;;;0.90;;
1328;SDS011;658;48.820;9.354;2023-05-07T06:28:10;0.83;;;0.83;;
1328;SDS011;658;48.820;9.354;2023-05-07T06:32:11;1.10;;;1.10;;
1328;SDS011;658;48.820;9.354;2023-05-07T06:36:13;0.90;;;0.90;;
1328;SDS011;658;48.820;9.354;2023-05-07T06:40:13;1.03;;;1.03;;
1328;SDS011;658;48.820;9.354;2023-05-07T06:44:14;1.17;;;1.07;;
1328;SDS011;658;48.820;9.354;2023-05-07T06:48:15;1.07;;;1.07;;
1328;SDS011;658;48.820;9.354;2023-05-07T06:52:15;1.13;;;1.00;;
1328;SDS011;658;48.820;9.354;2023-05-07T06:56:16;0.80;;;0.80;;
1328;SDS011;658;48.820;9.354;2023-05-07T07:00:19;1.07;;;1.07;;
1328;SDS011;658;48.820;9.354;2023-05-07T07:04:20;0.87;;;0.87;;
1328;SDS011;658;48.820;9.354;2023-05-07T07:08:22;0.90;;;0.90;;
1328;SDS011;658;48.820;9.354;2023-05-07T07:12:23;1.03;;;1.03;;
1328;SDS011;658;48.820;9.354;2023-05-07T07:16:26;1.17;;;1.17;;
1328;SDS011;658;48.820;9.354;2023-05-07T07:20:26;1.63;;;1.00;;
1328;SDS011;658;48.820;9.354;2023-05-07T07:24:27;1.23;;;1.13;;
1328;SDS011;658;48.820;9.354;2023-05-07T07:28:28;0.90;;;0.90;;
1328;SDS011;658;48.820;9.354;2023-05-07T07:32:31;1.07;;;1.07;;
1328;SDS011;658;48.820;9.354;2023-05-07T07:36:33;0.87;;;0.87;;
1328;SDS011;658;48.820;9.354;2023-05-07T07:40:34;1.00;;;0.93;;
1328;SDS011;658;48.820;9.354;2023-05-07T07:44:35;1.00;;;1.00;;
1328;SDS011;658;48.820;9.354;2023-05-07T07:48:36;0.90;;;0.90;;
1328;SDS011;658;48.820;9.354;2023-05-07T07:52:36;0.80;;;0.80;;
1328;SDS011;658;48.820;9.354;2023-05-07T07:56:37;1.37;;;1.27;;
1328;SDS011;658;48.820;9.354;2023-05-07T08:00:38;0.93;;;0.93;;
1328;SDS011;658;48.820;9.354;2023-05-07T08:04:38;0.70;;;0.70;;
1328;SDS011;658;48.820;9.354;2023-05-07T08:08:39;0.83;;;0.83;;
1328;SDS011;658;48.820;9.354;2023-05-07T08:12:42;1.20;;;1.10;;
1328;SDS011;658;48.820;9.354;2023-05-07T08:16:42;0.80;;;0.80;;
1328;SDS011;658;48.820;9.354;2023-05-07T08:20:43;1.00;;;1.00;;
1328;SDS011;658;48.820;9.354;2023-05-07T08:24:44;0.90;;;0.90;;
1328;SDS011;658;48.820;9.354;2023-05-07T08:28:47;1.17;;;1.10;;
1328;SDS011;658;48.820;9.354;2023-05-07T08:32:47;0.97;;;0.97;;
1328;SDS011;658;48.820;9.354;2023-05-07T08:36:48;1.00;;;1.00;;
1328;SDS011;658;48.820;9.354;2023-05-07T08:40:48;0.80;;;0.80;;
1328;SDS011;658;48.820;9.354;2023-05-07T08:44:49;1.87;;;1.00;;
1328;SDS011;658;48.820;9.354;2023-05-07T08:48:53;0.80;;;0.80;;
1328;SDS011;658;48.820;9.354;2023-05-07T08:52:53;0.97;;;0.97;;
1328;SDS011;658;48.820;9.354;2023-05-07T08:56:54;1.73;;;0.80;;
1328;SDS011;658;48.820;9.354;2023-05-07T09:00:55;1.13;;;0.80;;
1328;SDS011;658;48.820;9.354;2023-05-07T09:04:56;0.93;;;0.93;;
1328;SDS011;658;48.820;9.354;2023-05-07T09:08:56;0.70;;;0.70;;
1328;SDS011;658;48.820;9.354;2023-05-07T09:13:02;1.23;;;1.00;;
1328;SDS011;658;48.820;9.354;2023-05-07T09:17:02;1.00;;;1.00;;
1328;SDS011;658;48.820;9.354;2023-05-07T09:21:03;1.73;;;0.90;;
1328;SDS011;658;48.820;9.354;2023-05-07T09:25:04;1.40;;;1.30;;
1328;SDS011;658;48.820;9.354;2023-05-07T09:29:07;1.67;;;1.43;;
1328;SDS011;658;48.820;9.354;2023-05-07T09:33:10;1.00;;;0.93;;
1328;SDS011;658;48.820;9.354;2023-05-07T09:37:10;0.93;;;0.93;;
1328;SDS011;658;48.820;9.354;2023-05-07T09:41:14;3.07;;;1.43;;
1328;SDS011;658;48.820;9.354;2023-05-07T09:45:20;1.40;;;1.30;;
1328;SDS011;658;48.820;9.354;2023-05-07T09:49:22;1.40;;;1.30;;
1328;SDS011;658;48.820;9.354;2023-05-07T09:53:29;1.50;;;1.40;;
1328;SDS011;658;48.820;9.354;2023-05-07T09:57:31;1.57;;;1.20;;
1328;SDS011;658;48.820;9.354;2023-05-07T10:01:34;1.33;;;0.90;;
1328;SDS011;658;48.820;9.354;2023-05-07T10:05:36;2.50;;;2.30;;
1328;SDS011;658;48.820;9.354;2023-05-07T10:09:38;2.13;;;2.03;;
1328;SDS011;658;48.820;9.354;2023-05-07T10:13:42;2.70;;;2.03;;
1328;SDS011;658;48.820;9.354;2023-05-07T10:17:43;3.77;;;2.20;;
1328;SDS011;658;48.820;9.354;2023-05-07T10:21:54;2.53;;;2.30;;
1328;SDS011;658;48.820;9.354;2023-05-07T10:25:58;2.60;;;2.00;;
1328;SDS011;658;48.820;9.354;2023-05-07T10:34:28;3.20;;;2.03;;
1328;SDS011;658;48.820;9.354;2023-05-07T10:38:38;2.33;;;2.23;;
1328;SDS011;658;48.820;9.354;2023-05-07T10:42:57;2.40;;;2.30;;
1328;SDS011;658;48.820;9.354;2023-05-07T10:47:08;4.33;;;2.50;;
1328;SDS011;658;48.820;9.354;2023-05-07T10:51:20;2.77;;;2.57;;
1328;SDS011;658;48.820;9.354;2023-05-07T10:55:22;2.20;;;2.00;;
1328;SDS011;658;48.820;9.354;2023-05-07T10:59:31;2.67;;;2.47;;
1328;SDS011;658;48.820;9.354;2023-05-07T11:03:33;3.13;;;1.90;;
1328;SDS011;658;48.820;9.354;2023-05-07T11:07:35;2.63;;;2.00;;
1328;SDS011;658;48.820;9.354;2023-05-07T11:11:48;2.47;;;2.30;;
1328;SDS011;658;48.820;9.354;2023-05-07T11:15:51;2.53;;;2.17;;
1328;SDS011;658;48.820;9.354;2023-05-07T11:19:52;2.50;;;2.30;;
1328;SDS011;658;48.820;9.354;2023-05-07T11:23:54;2.70;;;2.40;;
1328;SDS011;658;48.820;9.354;2023-05-07T11:27:56;4.37;;;2.70;;
1328;SDS011;658;48.820;9.354;2023-05-07T11:32:10;3.27;;;2.27;;
1328;SDS011;658;48.820;9.354;2023-05-07T11:36:12;2.00;;;1.90;;
1328;SDS011;658;48.820;9.354;2023-05-07T11:40:12;2.30;;;2.00;;
1328;SDS011;658;48.820;9.354;2023-05-07T11:44:13;2.30;;;2.10;;
1328;SDS011;658;48.820;9.354;2023-05-07T11:48:16;2.20;;;2.00;;
1328;SDS011;658;48.820;9.354;2023-05-07T11:52:17;4.40;;;2.70;;
1328;SDS011;658;48.820;9.354;2023-05-07T11:56:19;3.87;;;2.10;;
1328;SDS011;658;48.820;9.354;2023-05-07T12:00:20;8.60;;;2.40;;
1328;SDS011;658;48.820;9.354;2023-05-07T12:04:21;2.67;;;2.30;;
1328;SDS011;658;48.820;9.354;2023-05-07T12:08:21;4.07;;;2.40;;
1328;SDS011;658;48.820;9.354;2023-05-07T12:12:22;5.47;;;2.60;;
1328;SDS011;658;48.820;9.354;2023-05-07T12:16:27;2.87;;;2.17;;
1328;SDS011;658;48.820;9.354;2023-05-07T12:20:27;1.70;;;1.60;;
1328;SDS011;658;48.820;9.354;2023-05-07T12:24:28;3.80;;;2.33;;
1328;SDS011;658;48.820;9.354;2023-05-07T12:28:29;3.07;;;2.20;;
1328;SDS011;658;48.820;9.354;2023-05-07T12:32:30;2.53;;;2.27;;
1328;SDS011;658;48.820;9.354;2023-05-07T12:36:39;2.10;;;2.00;;
1328;SDS011;658;48.820;9.354;2023-05-07T12:40:41;2.97;;;2.30;;
1328;SDS011;658;48.820;9.354;2023-05-07T12:44:45;1.73;;;1.63;;
1328;SDS011;658;48.820;9.354;2023-05-07T12:48:48;2.90;;;1.70;;
1328;SDS011;658;48.820;9.354;2023-05-07T12:52:48;2.63;;;2.43;;
1328;SDS011;658;48.820;9.354;2023-05-07T12:56:49;3.10;;;1.80;;
1328;SDS011;658;48.820;9.354;2023-05-07T13:01:03;2.70;;;1.70;;
1328;SDS011;658;48.820;9.354;2023-05-07T13:05:05;3.63;;;2.07;;
1328;SDS011;658;48.820;9.354;2023-05-07T13:09:07;2.40;;;1.97;;
1328;SDS011;658;48.820;9.354;2023-05-07T13:13:07;3.50;;;2.00;;
1328;SDS011;658;48.820;9.354;2023-05-07T13:17:08;1.93;;;1.70;;
1328;SDS011;658;48.820;9.354;2023-05-07T13:21:09;2.00;;;1.60;;
1328;SDS011;658;48.820;9.354;2023-05-07T13:25:10;2.13;;;1.60;;
1328;SDS011;658;48.820;9.354;2023-05-07T13:29:10;2.63;;;1.80;;
1328;SDS011;658;48.820;9.354;2023-05-07T13:33:13;3.47;;;1.70;;
1328;SDS011;658;48.820;9.354;2023-05-07T13:37:15;1.87;;;1.73;;
1328;SDS011;658;48.820;9.354;2023-05-07T13:41:16;2.07;;;1.87;;
1328;SDS011;658;48.820;9.354;2023-05-07T13:45:17;3.40;;;2.20;;
1328;SDS011;658;48.820;9.354;2023-05-07T13:49:18;1.93;;;1.73;;
1328;SDS011;658;48.820;9.354;2023-05-07T13:53:19;2.03;;;1.83;;
1328;SDS011;658;48.820;9.354;2023-05-07T13:57:19;1.90;;;1.40;;
1328;SDS011;658;48.820;9.354;2023-05-07T14:01:20;2.13;;;1.70;;
1328;SDS011;658;48.820;9.354;2023-05-07T14:05:21;1.97;;;1.77;;
1328;SDS011;658;48.820;9.354;2023-05-07T14:09:23;2.00;;;1.70;;
1328;SDS011;658;48.820;9.354;2023-05-07T14:13:23;3.90;;;1.63;;
1328;SDS011;658;48.820;9.354;2023-05-07T14:17:25;2.20;;;1.60;;
1328;SDS011;658;48.820;9.354;2023-05-07T14:21:27;1.80;;;1.70;;
1328;SDS011;658;48.820;9.354;2023-05-07T14:25:27;2.60;;;1.90;;
1328;SDS011;658;48.820;9.354;2023-05-07T14:29:28;1.60;;;1.50;;
1328;SDS011;658;48.820;9.354;2023-05-07T14:33:28;1.60;;;1.50;;
1328;SDS011;658;48.820;9.354;2023-05-07T14:37:29;1.67;;;1.57;;
1328;SDS011;658;48.820;9.354;2023-05-07T14:41:30;1.80;;;1.63;;
1328;SDS011;658;48.820;9.354;2023-05-07T14:45:31;1.70;;;1.60;;
1328;SDS011;658;48.820;9.354;2023-05-07T14:49:32;1.63;;;1.53;;
1328;SDS011;658;48.820;9.354;2023-05-07T14:53:33;2.13;;;1.50;;
1328;SDS011;658;48.820;9.354;2023-05-07T14:57:33;1.50;;;1.40;;
1328;SDS011;658;48.820;9.354;2023-05-07T15:01:35;2.30;;;1.47;;
1328;SDS011;658;48.820;9.354;2023-05-07T15:05:36;2.77;;;1.33;;
1328;SDS011;658;48.820;9.354;2023-05-07T15:09:37;2.90;;;1.70;;
1328;SDS011;658;48.820;9.354;2023-05-07T15:13:38;1.27;;;1.20;;
1328;SDS011;658;48.820;9.354;2023-05-07T15:17:38;1.50;;;1.30;;
1328;SDS011;658;48.820;9.354;2023-05-07T15:21:39;1.40;;;1.30;;
1328;SDS011;658;48.820;9.354;2023-05-07T15:25:39;1.60;;;1.40;;
1328;SDS011;658;48.820;9.354;2023-05-07T15:29:43;1.20;;;1.10;;
1328;SDS011;658;48.820;9.354;2023-05-07T15:33:43;5.13;;;2.30;;
1328;SDS011;658;48.820;9.354;2023-05-07T15:37:44;1.50;;;1.40;;
1328;SDS011;658;48.820;9.354;2023-05-07T15:41:47;1.30;;;1.20;;
1328;SDS011;658;48.820;9.354;2023-05-07T15:45:50;1.60;;;1.50;;
1328;SDS011;658;48.820;9.354;2023-05-07T15:49:51;1.47;;;1.30;;
1328;SDS011;658;48.820;9.354;2023-05-07T15:53:51;1.40;;;1.30;;
1328;SDS011;658;48.820;9.354;2023-05-07T15:57:52;1.50;;;1.40;;
1328;SDS011;658;48.820;9.354;2023-05-07T16:01:55;1.37;;;1.27;;
1328;SDS011;658;48.820;9.354;2023-05-07T16:05:57;2.90;;;1.40;;
1328;SDS011;658;48.820;9.354;2023-05-07T16:09:59;1.50;;;1.40;;
1328;SDS011;658;48.820;9.354;2023-05-07T16:14:00;1.60;;;1.20;;
1328;SDS011;658;48.820;9.354;2023-05-07T16:18:00;2.70;;;1.50;;
1328;SDS011;658;48.820;9.354;2023-05-07T16:22:01;4.07;;;1.30;;
1328;SDS011;658;48.820;9.354;2023-05-07T16:26:02;6.13;;;1.57;;
1328;SDS011;658;48.820;9.354;2023-05-07T16:30:04;2.30;;;1.40;;
1328;SDS011;658;48.820;9.354;2023-05-07T16:34:05;1.37;;;1.27;;
1328;SDS011;658;48.820;9.354;2023-05-07T16:38:06;5.23;;;1.60;;
1328;SDS011;658;48.820;9.354;2023-05-07T16:42:10;2.63;;;1.20;;
1328;SDS011;658;48.820;9.354;2023-05-07T16:46:10;1.13;;;1.03;;
1328;SDS011;658;48.820;9.354;2023-05-07T16:50:11;2.20;;;1.20;;
1328;SDS011;658;48.820;9.354;2023-05-07T16:54:14;1.00;;;1.00;;
1328;SDS011;658;48.820;9.354;2023-05-07T16:58:16;1.40;;;1.30;;
1328;SDS011;658;48.820;9.354;2023-05-07T17:02:18;1.80;;;1.27;;
1328;SDS011;658;48.820;9.354;2023-05-07T17:06:18;1.93;;;1.33;;
1328;SDS011;658;48.820;9.354;2023-05-07T17:10:19;3.70;;;1.43;;
1328;SDS011;658;48.820;9.354;2023-05-07T17:14:22;2.97;;;1.10;;
1328;SDS011;658;48.820;9.354;2023-05-07T17:18:23;1.83;;;1.10;;
1328;SDS011;658;48.820;9.354;2023-05-07T17:22:23;2.30;;;1.20;;
1328;SDS011;658;48.820;9.354;2023-05-07T17:26:26;1.90;;;1.13;;
1328;SDS011;658;48.820;9.354;2023-05-07T17:30:27;2.93;;;1.30;;
1328;SDS011;658;48.820;9.354;2023-05-07T17:34:28;2.27;;;1.27;;
1328;SDS011;658;48.820;9.354;2023-05-07T17:38:31;3.27;;;1.13;;
1328;SDS011;658;48.820;9.354;2023-05-07T17:42:32;2.30;;;1.00;;
1328;SDS011;658;48.820;9.354;2023-05-07T17:46:32;3.40;;;1.27;;
1328;SDS011;658;48.820;9.354;2023-05-07T17:50:33;2.07;;;1.20;;
1328;SDS011;658;48.820;9.354;2023-05-07T17:54:33;1.80;;;1.43;;
1328;SDS011;658;48.820;9.354;2023-05-07T17:58:34;1.73;;;1.30;;
1328;SDS011;658;48.820;9.354;2023-05-07T18:02:37;3.43;;;1.60;;
1328;SDS011;658;48.820;9.354;2023-05-07T18:06:39;1.30;;;1.20;;
1328;SDS011;658;48.820;9.354;2023-05-07T18:10:41;0.90;;;0.90;;
1328;SDS011;658;48.820;9.354;2023-05-07T18:14:44;2.60;;;1.13;;
1328;SDS011;658;48.820;9.354;2023-05-07T18:18:46;1.00;;;0.90;;
1328;SDS011;658;48.820;9.354;2023-05-07T18:22:46;1.10;;;1.03;;
1328;SDS011;658;48.820;9.354;2023-05-07T18:26:50;1.60;;;1.00;;
1328;SDS011;658;48.820;9.354;2023-05-07T18:30:50;1.13;;;1.03;;
1328;SDS011;658;48.820;9.354;2023-05-07T18:34:51;1.43;;;1.10;;
1328;SDS011;658;48.820;9.354;2023-05-07T18:38:53;2.43;;;1.10;;
1328;SDS011;658;48.820;9.354;2023-05-07T18:42:56;1.67;;;1.57;;
1328;SDS011;658;48.820;9.354;2023-05-07T18:46:57;1.10;;;1.00;;
1328;SDS011;658;48.820;9.354;2023-05-07T18:50:57;1.30;;;1.20;;
1328;SDS011;658;48.820;9.354;2023-05-07T18:54:58;0.97;;;0.87;;
1328;SDS011;658;48.820;9.354;2023-05-07T18:58:59;1.30;;;1.13;;
1328;SDS011;658;48.820;9.354;2023-05-07T19:02:59;1.23;;;0.97;;
1328;SDS011;658;48.820;9.354;2023-05-07T19:07:00;1.77;;;1.27;;
1328;SDS011;658;48.820;9.354;2023-05-07T19:11:01;2.20;;;1.13;;
1328;SDS011;658;48.820;9.354;2023-05-07T19:15:02;1.60;;;1.03;;
1328;SDS011;658;48.820;9.354;2023-05-07T19:19:03;2.70;;;1.07;;
1328;SDS011;658;48.820;9.354;2023-05-07T19:23:04;2.07;;;1.03;;
1328;SDS011;658;48.820;9.354;2023-05-07T19:27:08;1.43;;;0.97;;
1328;SDS011;658;48.820;9.354;2023-05-07T19:31:08;1.10;;;1.00;;
1328;SDS011;658;48.820;9.354;2023-05-07T19:35:17;0.90;;;0.90;;
1328;SDS011;658;48.820;9.354;2023-05-07T19:39:18;1.10;;;1.00;;
1328;SDS011;658;48.820;9.354;2023-05-07T19:43:19;1.30;;;1.20;;
1328;SDS011;658;48.820;9.354;2023-05-07T19:47:19;1.30;;;1.13;;
1328;SDS011;658;48.820;9.354;2023-05-07T19:51:23;1.57;;;1.17;;
1328;SDS011;658;48.820;9.354;2023-05-07T19:55:23;0.90;;;0.90;;
1328;SDS011;658;48.820;9.354;2023-05-07T19:59:24;2.83;;;1.00;;
1328;SDS011;658;48.820;9.354;2023-05-07T20:03:24;1.00;;;1.00;;
1328;SDS011;658;48.820;9.354;2023-05-07T20:07:25;2.87;;;1.00;;
1328;SDS011;658;48.820;9.354;2023-05-07T20:11:26;0.93;;;0.93;;
1328;SDS011;658;48.820;9.354;2023-05-07T20:15:27;1.83;;;1.00;;
1328;SDS011;658;48.820;9.354;2023-05-07T20:19:28;1.17;;;1.03;;
1328;SDS011;658;48.820;9.354;2023-05-07T20:23:28;2.53;;;1.07;;
1328;SDS011;658;48.820;9.354;2023-05-07T20:27:29;1.60;;;1.10;;
1328;SDS011;658;48.820;9.354;2023-05-07T20:31:32;1.10;;;1.00;;
1328;SDS011;658;48.820;9.354;2023-05-07T20:35:34;1.33;;;1.23;;
1328;SDS011;658;48.820;9.354;2023-05-07T20:39:34;1.10;;;1.00;;
1328;SDS011;658;48.820;9.354;2023-05-07T20:43:35;1.13;;;1.03;;
1328;SDS011;658;48.820;9.354;2023-05-07T20:47:36;1.10;;;1.10;;
1328;SDS011;658;48.820;9.354;2023-05-07T20:51:37;1.20;;;1.10;;
1328;SDS011;658;48.820;9.354;2023-05-07T20:55:40;0.80;;;0.80;;
1328;SDS011;658;48.820;9.354;2023-05-07T20:59:41;1.20;;;1.10;;
1328;SDS011;658;48.820;9.354;2023-05-07T21:03:42;5.10;;;1.53;;
1328;SDS011;658;48.820;9.354;2023-05-07T21:07:43;0.90;;;0.90;;
1328;SDS011;658;48.820;9.354;2023-05-07T21:11:44;1.53;;;1.00;;
1328;SDS011;658;48.820;9.354;2023-05-07T21:15:46;2.50;;;1.30;;
1328;SDS011;658;48.820;9.354;2023-05-07T21:19:47;1.17;;;1.07;;
1328;SDS011;658;48.820;9.354;2023-05-07T21:23:49;3.17;;;1.10;;
1328;SDS011;658;48.820;9.354;2023-05-07T21:27:49;0.80;;;0.80;;
1328;SDS011;658;48.820;9.354;2023-05-07T21:31:50;0.80;;;0.80;;
1328;SDS011;658;48.820;9.354;2023-05-07T21:35:50;0.83;;;0.83;;
1328;SDS011;658;48.820;9.354;2023-05-07T21:39:51;0.93;;;0.93;;
1328;SDS011;658;48.820;9.354;2023-05-07T21:43:52;1.63;;;0.90;;
1328;SDS011;658;48.820;9.354;2023-05-07T21:47:53;0.90;;;0.90;;
1328;SDS011;658;48.820;9.354;2023-05-07T21:51:56;1.20;;;1.10;;
1328;SDS011;658;48.820;9.354;2023-05-07T21:55:57;1.20;;;1.10;;
1328;SDS011;658;48.820;9.354;2023-05-07T22:00:02;1.17;;;1.07;;
1328;SDS011;658;48.820;9.354;2023-05-07T22:04:03;1.27;;;0.90;;
1328;SDS011;658;48.820;9.354;2023-05-07T22:08:04;2.47;;;1.27;;
1328;SDS011;658;48.820;9.354;2023-05-07T22:12:04;1.33;;;1.00;;
1328;SDS011;658;48.820;9.354;2023-05-07T22:16:05;1.77;;;1.00;;
1328;SDS011;658;48.820;9.354;2023-05-07T22:20:06;0.90;;;0.90;;
1328;SDS011;658;48.820;9.354;2023-05-07T22:24:07;0.90;;;0.80;;
1328;SDS011;658;48.820;9.354;2023-05-07T22:28:08;0.80;;;0.80;;
1328;SDS011;658;48.820;9.354;2023-05-07T22:32:08;1.00;;;1.00;;
1328;SDS011;658;48.820;9.354;2023-05-07T22:36:09;1.10;;;1.00;;
1328;SDS011;658;48.820;9.354;2023-05-07T22:40:09;2.70;;;1.03;;
1328;SDS011;658;48.820;9.354;2023-05-07T22:44:10;1.20;;;1.10;;
1328;SDS011;658;48.820;9.354;2023-05-07T22:48:11;1.37;;;1.10;;
1328;SDS011;658;48.820;9.354;2023-05-07T22:52:12;1.00;;;1.00;;
1328;SDS011;658;48.820;9.354;2023-05-07T22:56:13;1.07;;;0.90;;
1328;SDS011;658;48.820;9.354;2023-05-07T23:00:16;0.90;;;0.90;;
1328;SDS011;658;48.820;9.354;2023-05-07T23:04:17;1.47;;;1.00;;
1328;SDS011;658;48.820;9.354;2023-05-07T23:08:17;0.90;;;0.90;;
1328;SDS011;658;48.820;9.354;2023-05-07T23:12:18;1.00;;;1.00;;
1328;SDS011;658;48.820;9.354;2023-05-07T23:16:18;0.97;;;0.97;;
1328;SDS011;658;48.820;9.354;2023-05-07T23:20:19;1.07;;;0.90;;
1328;SDS011;658;48.820;9.354;2023-05-07T23:24:22;1.13;;;1.00;;
1328;SDS011;658;48.820;9.354;2023-05-07T23:28:22;1.20;;;1.10;;
1328;SDS011;658;48.820;9.354;2023-05-07T23:32:25;1.13;;;0.90;;
1328;SDS011;658;48.820;9.354;2023-05-07T23:36:26;0.80;;;0.80;;
1328;SDS011;658;48.820;9.354;2023-05-07T23:40:27;0.90;;;0.90;;
1328;SDS011;658;48.820;9.354;2023-05-07T23:44:27;0.87;;;0.87;;
1328;SDS011;658;48.820;9.354;2023-05-07T23:48:30;1.70;;;0.90;;
1328;SDS011;658;48.820;9.354;2023-05-07T23:52:31;0.93;;;0.90;;
1328;SDS011;658;48.820;9.354;2023-05-07T23:56:31;0.80;;;0.80;;
